Aviation Digital Data Service (ADDS)

Output produced by METARs form (1111 UTC 21 April 2018)
found at http://aviationweather.gov/adds/metars/
 
KRWI 210521Z 2106/2206 VRB03KT P6SM SKC